Airfield :
LOGIN :

Register | Disclaimer

   EN    FR    IT 

 










Legend :    VFR   Marginal VFR   IFR   Intensive IFR   Very Intensive IFR
Visi :
Ceiling :
>= 8 km
>= 3000ft
5 to 8 km
1000 to 3000 ft
1500m to 5 km
500 to 1000 ft
800 to 1500m
200 to 500 ft
< 800m
< 200 ft
Symbols :   Thunderstorms  Fog  Heavy snow  Heavy precipitations  Wind > 20 kt
SIGMETs :     Misc.  Thunderstorms  Icing  Turbulence  Mountain Waves  Volcanic Ashes






- Airport Elevation : 38 ft
- IATA code : TRE


EGPU - Tiree

CURRENT METAR :
  • 181050Z 02005KT 9999 FEW030 11/05 Q1021

EXPIRED METARs :
  • 181020Z 35004KT 310V040 9999 FEW028 11/05 Q1021
  • 180950Z 32006KT 9999 FEW027 11/06 Q1021
  • 180920Z 02005KT 330V040 9999 FEW027 11/06 Q1021
  • 180850Z AUTO 35004KT 280V060 9999 FEW027/// SCT049/// 12/05 Q1021
  • 180820Z 35005KT 310V030 9999 FEW026 12/06 Q1021

TAF TAF EGPU
Valid from the 18 at 09:00 until the 18 at 18:00 UTC


180758Z 1809/1818 34007KT 9999 FEW025



MET'MAP, your aeronautical weather chart ! - Copyright ORBIFLY December 2007 - Disclaimer

ORBIFLY MET'MAP TEAM :

Programming & Development : Alexandra Zaïnal
Concept & original design : Baudouin d'Aumeries
Assistance for programming : Marc-Olivier Méhu
Technical & hardware support : Manuel Goepfert

Contact : metmap@orbifly.com




SOURCES & CREDITS :

   NOAA